Time;durP1;ratioP1;P1;durP2;ratioP2;P2;SDS_P1;SDS_P2;PMS_P1;PMS_P2;Temp;Humidity;BMP_temperature;BMP_pressure;BME280_temperature;BME280_humidity;BME280_pressure;Samples;Min_cycle;Max_cycle;Signal;HPM_P1;HPM_P2
2022/03/08 00:00:19;;;;;;;12.50;9.40;;;1.10;82.30;;;;;;5134174;27;20494;-77
2022/03/08 00:02:46;;;;;;;12.48;6.90;;;1.10;82.50;;;;;;5134354;27;20054;-78
2022/03/08 00:05:11;;;;;;;15.98;9.15;;;1.10;82.50;;;;;;5134113;27;20095;-78
2022/03/08 00:07:37;;;;;;;14.77;11.00;;;1.10;82.00;;;;;;5133640;27;20039;-78
2022/03/08 00:10:06;;;;;;;12.15;8.55;;;1.10;82.10;;;;;;5100074;27;20041;-79
2022/03/08 00:12:32;;;;;;;9.10;6.57;;;1.10;82.30;;;;;;5133449;27;20514;-78
2022/03/08 00:14:58;;;;;;;8.30;5.85;;;1.10;82.50;;;;;;5150932;27;20039;-78
2022/03/08 00:17:24;;;;;;;11.82;7.35;;;1.10;82.50;;;;;;5116593;27;20035;-79
2022/03/08 00:19:50;;;;;;;10.70;6.40;;;1.20;82.40;;;;;;5117134;27;20035;-78
2022/03/08 00:22:16;;;;;;;12.98;8.63;;;1.10;82.20;;;;;;5116475;27;20054;-79
2022/03/08 00:24:42;;;;;;;9.18;7.22;;;1.10;81.90;;;;;;5116903;27;20039;-79
2022/03/08 00:27:08;;;;;;;12.57;7.10;;;1.10;81.80;;;;;;5133609;27;20038;-79
2022/03/08 00:29:34;;;;;;;9.52;6.30;;;1.20;81.60;;;;;;5133349;27;20039;-79
2022/03/08 00:31:59;;;;;;;9.70;6.88;;;1.10;81.70;;;;;;5116531;27;20049;-78
2022/03/08 00:34:25;;;;;;;11.63;7.28;;;1.10;81.70;;;;;;5116817;27;20447;-78
2022/03/08 00:36:51;;;;;;;11.38;7.88;;;1.10;81.60;;;;;;5133578;27;20495;-79
2022/03/08 00:39:18;;;;;;;18.85;10.00;;;1.10;81.50;;;;;;5133584;27;20076;-79
2022/03/08 00:41:45;;;;;;;14.68;9.35;;;1.10;81.50;;;;;;5133893;27;20050;-78
2022/03/08 00:44:10;;;;;;;11.38;8.05;;;1.10;81.50;;;;;;5150829;27;20035;-78
2022/03/08 00:46:36;;;;;;;27.52;15.38;;;1.00;81.40;;;;;;5133459;27;20134;-79
2022/03/08 00:49:03;;;;;;;28.55;16.55;;;1.00;81.40;;;;;;5133238;27;20047;-78
2022/03/08 00:51:29;;;;;;;14.60;10.90;;;1.00;81.40;;;;;;5133441;27;20042;-78
2022/03/08 00:53:55;;;;;;;18.20;10.73;;;1.00;81.50;;;;;;5116678;27;20410;-78
2022/03/08 00:56:21;;;;;;;12.30;8.43;;;0.90;81.40;;;;;;5099341;28;20038;-79
2022/03/08 00:58:47;;;;;;;11.00;7.57;;;0.90;81.40;;;;;;5116603;28;20046;-78
2022/03/08 01:01:13;;;;;;;9.18;6.60;;;0.90;81.30;;;;;;5099676;28;20506;-78
2022/03/08 01:03:39;;;;;;;11.25;7.10;;;0.80;81.30;;;;;;5150588;27;20356;-79
2022/03/08 01:06:05;;;;;;;11.20;7.18;;;0.80;81.30;;;;;;5133056;28;20387;-78
2022/03/08 01:08:31;;;;;;;11.35;7.07;;;0.80;81.40;;;;;;5115715;28;20039;-78
2022/03/08 01:10:56;;;;;;;10.88;7.13;;;0.70;81.40;;;;;;5133166;28;20122;-78
2022/03/08 01:13:22;;;;;;;10.60;6.63;;;0.70;81.40;;;;;;5132956;28;20534;-79
2022/03/08 01:15:48;;;;;;;10.93;6.88;;;0.70;81.40;;;;;;5133001;28;20127;-77
2022/03/08 01:18:14;;;;;;;10.10;6.68;;;0.70;81.30;;;;;;5116833;27;20045;-78
2022/03/08 01:20:40;;;;;;;10.32;6.88;;;0.60;81.40;;;;;;5137349;27;20046;-79
2022/03/08 01:23:05;;;;;;;9.45;6.95;;;0.60;81.40;;;;;;5103245;27;20039;-78
2022/03/08 01:25:31;;;;;;;11.10;6.80;;;0.60;81.40;;;;;;5137713;27;20035;-78
2022/03/08 01:27:57;;;;;;;11.23;7.18;;;0.60;81.40;;;;;;5119947;27;20482;-78
2022/03/08 01:30:24;;;;;;;10.57;7.00;;;0.60;81.40;;;;;;5120562;27;20126;-77
2022/03/08 01:32:50;;;;;;;10.32;6.93;;;0.60;81.40;;;;;;5120204;27;20104;-79
2022/03/08 01:35:16;;;;;;;10.60;6.80;;;0.50;81.40;;;;;;5120234;27;20501;-77
2022/03/08 01:37:42;;;;;;;9.13;6.75;;;0.50;81.30;;;;;;5119935;27;20071;-79
2022/03/08 01:40:14;;;;;;;10.85;7.18;;;0.50;81.30;;;;;;5137096;27;20035;-78
2022/03/08 01:42:42;;;;;;;10.55;6.85;;;0.40;81.60;;;;;;5119611;27;20043;-79
2022/03/08 01:45:08;;;;;;;10.32;6.25;;;0.40;81.50;;;;;;5137415;27;20378;-79
2022/03/08 01:47:34;;;;;;;9.25;6.75;;;0.30;81.50;;;;;;5120010;27;20491;-78
2022/03/08 01:50:00;;;;;;;10.13;6.63;;;0.40;81.60;;;;;;5136901;27;20081;-78
2022/03/08 01:52:27;;;;;;;13.00;6.97;;;0.30;81.60;;;;;;5136838;27;20494;-78
2022/03/08 01:54:53;;;;;;;9.07;6.28;;;0.30;81.50;;;;;;5137263;27;20375;-79
2022/03/08 01:57:23;;;;;;;11.95;7.25;;;0.30;81.50;;;;;;5119442;27;20042;-79
2022/03/08 01:59:50;;;;;;;10.55;6.68;;;0.20;81.50;;;;;;5153968;27;20047;-78
2022/03/08 02:02:16;;;;;;;10.57;6.82;;;0.20;81.50;;;;;;5153684;27;20046;-78
2022/03/08 02:04:41;;;;;;;12.13;6.53;;;0.20;81.50;;;;;;5136396;27;20035;-79
2022/03/08 02:07:08;;;;;;;10.48;6.65;;;0.20;81.70;;;;;;5136336;27;20035;-78
2022/03/08 02:09:34;;;;;;;9.88;5.95;;;0.20;81.70;;;;;;5136498;27;20452;-78
2022/03/08 02:12:00;;;;;;;10.05;6.55;;;0.20;81.80;;;;;;5136210;27;20051;-79
2022/03/08 02:14:26;;;;;;;11.40;5.72;;;0.20;82.00;;;;;;5136171;27;20095;-78
2022/03/08 02:16:52;;;;;;;10.77;7.10;;;0.20;81.90;;;;;;5136420;27;20147;-78
2022/03/08 02:19:18;;;;;;;9.95;6.07;;;0.20;82.00;;;;;;5136410;27;20496;-79
2022/03/08 02:21:44;;;;;;;9.02;6.93;;;0.20;82.10;;;;;;5119019;27;20047;-78
2022/03/08 02:24:10;;;;;;;10.00;6.50;;;0.10;81.60;;;;;;5118989;27;20035;-79
2022/03/08 02:26:36;;;;;;;10.45;6.72;;;0.10;81.80;;;;;;5135989;27;20083;-78
2022/03/08 02:29:04;;;;;;;9.82;6.25;;;0.10;81.90;;;;;;5152672;27;20047;-78
2022/03/08 02:31:30;;;;;;;12.73;7.10;;;0.10;82.00;;;;;;5118806;27;20058;-79
2022/03/08 02:33:56;;;;;;;10.45;6.82;;;0.10;82.00;;;;;;5136036;27;20035;-78
2022/03/08 02:36:22;;;;;;;9.27;6.65;;;0.10;81.80;;;;;;5118915;27;20060;-78
2022/03/08 02:38:49;;;;;;;12.88;6.80;;;0.10;81.80;;;;;;5136000;27;20126;-77
2022/03/08 02:41:15;;;;;;;10.60;7.18;;;0.10;81.90;;;;;;5118510;27;20043;-79
2022/03/08 02:43:40;;;;;;;20.48;7.10;;;0.10;82.00;;;;;;5101496;27;20042;-78
2022/03/08 02:46:06;;;;;;;11.32;7.93;;;0.10;81.80;;;;;;5135929;27;20047;-78
2022/03/08 02:48:32;;;;;;;10.13;6.40;;;0.10;81.80;;;;;;5118331;27;20042;-79
2022/03/08 02:50:58;;;;;;;11.00;6.72;;;0.20;81.70;;;;;;5118503;27;20043;-79
2022/03/08 02:53:24;;;;;;;9.65;6.53;;;0.20;81.80;;;;;;5135649;27;20034;-78
2022/03/08 02:55:49;;;;;;;10.57;6.70;;;0.20;81.70;;;;;;5118512;27;20555;-78
2022/03/08 02:58:15;;;;;;;10.73;6.88;;;0.20;81.60;;;;;;5135489;27;20046;-78
2022/03/08 03:00:41;;;;;;;12.98;8.10;;;0.20;81.60;;;;;;5118378;27;20043;-79
2022/03/08 03:03:08;;;;;;;10.65;7.70;;;0.20;81.50;;;;;;5135416;27;20680;-78
2022/03/08 03:05:35;;;;;;;14.20;7.35;;;0.20;81.60;;;;;;5118307;27;20039;-78
2022/03/08 03:08:01;;;;;;;9.93;6.70;;;0.20;81.70;;;;;;5135121;27;20043;-78
2022/03/08 03:10:27;;;;;;;10.50;6.88;;;0.20;81.60;;;;;;5135498;27;20039;-78
2022/03/08 03:12:54;;;;;;;12.40;6.95;;;0.20;81.60;;;;;;5134893;27;20051;-79
2022/03/08 03:15:21;;;;;;;11.60;7.32;;;0.30;81.60;;;;;;5135326;27;20051;-79
2022/03/08 03:17:48;;;;;;;12.80;7.60;;;0.30;81.30;;;;;;5135064;27;20050;-79
2022/03/08 03:20:17;;;;;;;12.82;8.05;;;0.30;81.20;;;;;;5152356;27;20074;-79
2022/03/08 03:22:44;;;;;;;14.85;7.88;;;0.30;81.20;;;;;;5134905;27;20121;-78
2022/03/08 03:25:10;;;;;;;14.40;7.53;;;0.30;81.30;;;;;;5117866;27;20382;-79
2022/03/08 03:27:37;;;;;;;13.00;7.47;;;0.20;81.20;;;;;;5134662;27;20054;-78
2022/03/08 03:30:05;;;;;;;14.18;9.00;;;0.20;81.20;;;;;;5134769;27;20039;-79
2022/03/08 03:32:31;;;;;;;14.23;8.30;;;0.20;81.30;;;;;;5134783;27;20035;-78
2022/03/08 03:34:57;;;;;;;12.82;7.90;;;0.20;81.10;;;;;;5117455;27;20065;-79
2022/03/08 03:37:23;;;;;;;10.85;8.07;;;0.20;81.30;;;;;;5117661;27;20071;-78
2022/03/08 03:39:50;;;;;;;12.15;7.75;;;0.20;81.00;;;;;;5117593;27;20482;-79
2022/03/08 03:42:16;;;;;;;12.60;8.32;;;0.20;81.20;;;;;;5116493;27;20494;-78
2022/03/08 03:44:42;;;;;;;15.07;9.48;;;0.20;81.40;;;;;;5152050;27;20045;-78
2022/03/08 03:47:08;;;;;;;16.20;8.70;;;0.20;81.80;;;;;;5117519;27;20543;-78
2022/03/08 03:49:34;;;;;;;13.63;8.15;;;0.20;81.50;;;;;;5117333;27;20375;-79
2022/03/08 03:52:00;;;;;;;13.55;9.40;;;0.20;81.20;;;;;;5134530;27;20027;-79
2022/03/08 03:54:26;;;;;;;12.60;8.15;;;0.20;81.30;;;;;;5151937;27;20120;-78
2022/03/08 03:56:52;;;;;;;13.98;8.63;;;0.20;81.40;;;;;;5151657;27;20475;-78
2022/03/08 03:59:18;;;;;;;14.73;8.43;;;0.10;81.40;;;;;;5117396;27;20069;-79
2022/03/08 04:01:43;;;;;;;12.80;8.73;;;0.20;81.50;;;;;;5116554;27;20483;-78
2022/03/08 04:04:09;;;;;;;16.02;8.73;;;0.20;81.80;;;;;;5133819;27;20039;-79
2022/03/08 04:06:35;;;;;;;15.75;9.77;;;0.20;81.90;;;;;;5116782;27;20042;-78
2022/03/08 04:09:03;;;;;;;16.65;9.65;;;0.20;81.90;;;;;;5133937;27;20072;-78
2022/03/08 04:11:29;;;;;;;15.45;10.07;;;0.20;82.00;;;;;;5133919;27;20176;-79
2022/03/08 04:13:54;;;;;;;15.98;10.45;;;0.20;82.10;;;;;;5117141;27;20518;-78
2022/03/08 04:16:20;;;;;;;16.75;9.57;;;0.30;81.90;;;;;;5133756;27;20039;-79
2022/03/08 04:18:46;;;;;;;13.05;9.05;;;0.30;81.90;;;;;;5133650;27;20049;-78
2022/03/08 04:21:12;;;;;;;16.05;10.15;;;0.40;82.00;;;;;;5133584;27;20035;-79
2022/03/08 04:23:37;;;;;;;17.65;10.45;;;0.40;81.80;;;;;;5133686;27;20039;-79
2022/03/08 04:26:04;;;;;;;15.98;9.73;;;0.40;81.70;;;;;;5133857;27;20035;-78
2022/03/08 04:28:30;;;;;;;16.65;10.48;;;0.40;81.80;;;;;;5116564;27;20122;-78
2022/03/08 04:30:55;;;;;;;17.10;11.43;;;0.40;81.70;;;;;;5133559;27;20073;-78
2022/03/08 04:33:21;;;;;;;16.73;10.35;;;0.30;81.90;;;;;;5133608;27;20095;-78
2022/03/08 04:35:47;;;;;;;16.13;10.95;;;0.40;82.00;;;;;;5116395;27;20406;-78
2022/03/08 04:38:13;;;;;;;14.38;10.30;;;0.40;82.10;;;;;;5133897;27;20391;-78
2022/03/08 04:40:39;;;;;;;17.48;12.00;;;0.40;81.90;;;;;;5116700;27;20039;-79
2022/03/08 04:43:05;;;;;;;18.30;11.43;;;0.30;81.80;;;;;;5116597;27;20506;-80
2022/03/08 04:45:30;;;;;;;17.45;10.52;;;0.30;82.00;;;;;;5116312;27;20043;-78
2022/03/08 04:47:59;;;;;;;15.38;9.30;;;0.30;82.00;;;;;;5133186;27;20053;-79
2022/03/08 04:50:25;;;;;;;17.25;10.85;;;0.30;81.80;;;;;;5133296;27;20039;-78
2022/03/08 04:52:51;;;;;;;19.27;11.13;;;0.30;82.20;;;;;;5133303;27;20038;-78
2022/03/08 04:55:18;;;;;;;20.70;11.40;;;0.40;82.30;;;;;;5133405;27;20391;-78
2022/03/08 04:57:44;;;;;;;20.70;12.07;;;0.30;82.30;;;;;;5133394;28;20039;-78
2022/03/08 05:00:12;;;;;;;16.55;10.30;;;0.40;82.30;;;;;;5133514;28;20037;-79
2022/03/08 05:02:42;;;;;;;16.98;11.20;;;0.30;82.30;;;;;;5133335;28;20398;-79
2022/03/08 05:05:09;;;;;;;16.42;10.90;;;0.30;82.30;;;;;;5116222;28;20063;-79
2022/03/08 05:07:39;;;;;;;18.40;11.35;;;0.40;82.20;;;;;;5133286;28;20485;-79
2022/03/08 05:10:06;;;;;;;17.38;10.70;;;0.40;82.20;;;;;;5116319;28;20378;-79
2022/03/08 05:12:33;;;;;;;17.10;10.73;;;0.40;82.20;;;;;;5133098;28;20051;-79
2022/03/08 05:14:58;;;;;;;16.67;11.07;;;0.30;82.30;;;;;;5133463;28;20084;-79
2022/03/08 05:17:24;;;;;;;19.60;11.48;;;0.30;82.20;;;;;;5133046;28;20031;-79
2022/03/08 05:19:50;;;;;;;16.45;12.00;;;0.30;82.20;;;;;;5116213;28;20042;-79
2022/03/08 05:22:16;;;;;;;20.88;11.90;;;0.30;82.30;;;;;;5133006;28;20039;-79
2022/03/08 05:24:41;;;;;;;17.67;12.73;;;0.30;82.20;;;;;;5133085;28;20088;-79
2022/03/08 05:27:07;;;;;;;16.98;10.68;;;0.30;82.30;;;;;;5116121;28;20070;-79
2022/03/08 05:29:34;;;;;;;18.73;11.45;;;0.30;82.30;;;;;;5132833;28;20103;-78
2022/03/08 05:32:00;;;;;;;17.60;11.57;;;0.20;82.30;;;;;;5133037;28;20439;-79
2022/03/08 05:34:26;;;;;;;21.75;11.65;;;0.20;82.40;;;;;;5115938;28;20118;-79
2022/03/08 05:36:52;;;;;;;17.35;11.45;;;0.30;82.30;;;;;;5133362;28;20165;-78
2022/03/08 05:39:18;;;;;;;19.63;11.38;;;0.20;81.90;;;;;;5115844;28;20047;-79
2022/03/08 05:41:43;;;;;;;20.83;11.82;;;0.20;82.00;;;;;;5132737;28;20047;-79
2022/03/08 05:44:09;;;;;;;22.05;12.00;;;0.20;82.10;;;;;;5115939;28;20046;-79
2022/03/08 05:46:35;;;;;;;18.65;11.90;;;0.20;81.90;;;;;;5132999;28;20039;-79
2022/03/08 05:49:01;;;;;;;18.00;10.93;;;0.10;81.80;;;;;;5132600;28;20509;-79
2022/03/08 05:51:27;;;;;;;16.55;10.95;;;0.10;81.80;;;;;;5098883;28;20031;-79
2022/03/08 05:53:53;;;;;;;17.33;11.15;;;0.10;81.90;;;;;;5133086;28;20039;-79
2022/03/08 05:56:18;;;;;;;19.38;11.45;;;0.10;82.00;;;;;;5098549;28;20031;-79
2022/03/08 05:58:44;;;;;;;16.38;11.48;;;0.00;81.90;;;;;;5115306;28;20096;-79
2022/03/08 06:01:10;;;;;;;18.65;11.13;;;0.00;82.00;;;;;;5098668;28;20126;-79
2022/03/08 06:03:35;;;;;;;16.73;11.00;;;0.00;81.80;;;;;;5115417;28;20039;-79
2022/03/08 06:06:01;;;;;;;17.67;11.82;;;0.00;81.90;;;;;;5118939;27;20051;-78
2022/03/08 06:08:27;;;;;;;17.90;11.25;;;0.00;82.10;;;;;;5136428;27;20050;-79
2022/03/08 06:10:52;;;;;;;17.85;12.25;;;0.10;82.10;;;;;;5136397;27;20031;-79
2022/03/08 06:13:18;;;;;;;17.10;11.35;;;0.10;82.20;;;;;;5119096;27;20126;-80
2022/03/08 06:15:44;;;;;;;17.88;12.50;;;0.10;82.10;;;;;;5102440;27;20126;-80
2022/03/08 06:18:09;;;;;;;17.85;11.75;;;0.10;82.10;;;;;;5102069;27;20039;-79
2022/03/08 06:20:35;;;;;;;17.08;11.93;;;0.10;82.20;;;;;;5135976;27;20118;-80
2022/03/08 06:23:01;;;;;;;17.10;11.35;;;0.10;82.40;;;;;;5135906;27;20042;-79
2022/03/08 06:25:26;;;;;;;17.13;11.45;;;0.10;82.20;;;;;;5135844;27;20047;-79
2022/03/08 06:27:52;;;;;;;18.15;11.43;;;0.20;82.00;;;;;;5118844;27;20042;-80
2022/03/08 06:30:18;;;;;;;18.95;11.57;;;0.20;82.30;;;;;;5118890;27;20087;-79
2022/03/08 06:32:43;;;;;;;18.50;13.07;;;0.20;82.30;;;;;;5135968;27;20039;-80
2022/03/08 06:35:10;;;;;;;15.13;10.90;;;0.30;82.40;;;;;;5135936;27;20043;-80
2022/03/08 06:37:36;;;;;;;17.00;11.48;;;0.30;82.40;;;;;;5135999;27;20125;-80
2022/03/08 06:40:03;;;;;;;15.38;10.40;;;0.40;82.30;;;;;;5102179;27;20097;-79
2022/03/08 06:42:29;;;;;;;19.38;13.50;;;0.40;82.20;;;;;;5118485;27;20466;-80
2022/03/08 06:44:54;;;;;;;17.60;11.77;;;0.40;82.10;;;;;;5135820;27;20047;-79
2022/03/08 06:47:20;;;;;;;14.70;11.35;;;0.50;82.00;;;;;;5135623;27;20031;-81
2022/03/08 06:49:46;;;;;;;18.50;11.02;;;0.50;82.20;;;;;;5118278;27;20103;-80
2022/03/08 06:52:12;;;;;;;17.00;10.82;;;0.50;82.00;;;;;;5101305;27;20035;-80
2022/03/08 06:54:39;;;;;;;18.15;11.52;;;0.60;82.10;;;;;;5135159;27;20043;-79
2022/03/08 06:57:05;;;;;;;16.48;11.20;;;0.60;81.90;;;;;;5118708;27;20050;-80
2022/03/08 06:59:31;;;;;;;17.08;11.45;;;0.60;81.70;;;;;;5135308;27;20134;-79
2022/03/08 07:01:56;;;;;;;21.13;12.25;;;0.60;81.70;;;;;;5117826;27;20074;-80
2022/03/08 07:04:23;;;;;;;17.08;10.85;;;0.70;81.80;;;;;;5134451;27;20050;-80
2022/03/08 07:06:49;;;;;;;15.93;11.00;;;0.70;81.80;;;;;;5117879;27;20042;-77
2022/03/08 07:09:15;;;;;;;18.85;11.57;;;0.80;81.60;;;;;;5116857;27;20495;-77
2022/03/08 07:11:44;;;;;;;18.17;11.63;;;0.80;81.50;;;;;;5117289;27;20043;-79
2022/03/08 07:14:15;;;;;;;16.02;10.98;;;0.90;81.60;;;;;;5133496;27;20043;-77
2022/03/08 07:16:44;;;;;;;18.02;11.65;;;0.90;81.50;;;;;;5120571;27;20051;-77
2022/03/08 07:19:11;;;;;;;17.25;12.52;;;0.90;81.30;;;;;;5125325;27;20054;-79
2022/03/08 07:21:37;;;;;;;16.45;11.38;;;1.00;81.50;;;;;;5110807;28;20399;-78
2022/03/08 07:24:03;;;;;;;17.73;11.27;;;1.00;81.40;;;;;;5101266;27;20050;-77
2022/03/08 07:26:29;;;;;;;17.60;10.93;;;1.10;81.50;;;;;;5109103;27;20442;-77
2022/03/08 07:28:55;;;;;;;18.30;11.93;;;1.10;81.10;;;;;;5103550;27;20046;-76
2022/03/08 07:31:21;;;;;;;19.52;11.68;;;1.10;81.20;;;;;;5119395;27;20038;-76
2022/03/08 07:33:47;;;;;;;16.42;11.70;;;1.20;81.20;;;;;;5121005;27;20040;-77
2022/03/08 07:36:13;;;;;;;19.60;11.80;;;1.20;81.10;;;;;;5081091;27;20073;-77
2022/03/08 07:38:38;;;;;;;15.98;11.27;;;1.30;81.20;;;;;;5109268;27;20047;-76
2022/03/08 07:41:05;;;;;;;17.13;11.32;;;1.30;81.20;;;;;;5098732;27;20354;-77
2022/03/08 07:43:34;;;;;;;16.45;11.68;;;1.40;81.00;;;;;;5119246;27;20122;-77
2022/03/08 07:46:01;;;;;;;17.45;11.88;;;1.40;81.00;;;;;;5107668;27;20047;-76
2022/03/08 07:48:27;;;;;;;15.65;11.13;;;1.50;80.90;;;;;;5116202;27;20129;-77
2022/03/08 07:50:53;;;;;;;15.23;10.95;;;1.60;80.80;;;;;;5117668;27;20156;-77
2022/03/08 07:53:18;;;;;;;15.73;11.13;;;1.60;80.90;;;;;;5100990;27;20031;-77
2022/03/08 07:55:44;;;;;;;17.33;11.82;;;1.60;80.80;;;;;;5100001;27;20047;-77
2022/03/08 07:58:12;;;;;;;15.18;10.32;;;1.70;80.80;;;;;;5103266;27;20039;-77
2022/03/08 08:00:39;;;;;;;18.15;11.93;;;1.80;80.70;;;;;;5111948;27;21117;-78
2022/03/08 08:03:05;;;;;;;15.07;9.60;;;1.90;80.60;;;;;;5085619;27;20047;-77
2022/03/08 08:05:33;;;;;;;14.82;10.27;;;1.90;80.50;;;;;;5113839;27;20471;-77
2022/03/08 08:08:00;;;;;;;12.98;10.10;;;2.00;80.40;;;;;;5116996;27;20126;-77
2022/03/08 08:10:26;;;;;;;15.35;10.85;;;2.10;80.30;;;;;;5136064;27;20480;-78
2022/03/08 08:12:51;;;;;;;11.90;8.77;;;2.20;80.20;;;;;;5115164;27;20059;-77
2022/03/08 08:15:17;;;;;;;14.57;10.38;;;2.20;80.10;;;;;;5099874;27;20084;-78
2022/03/08 08:17:43;;;;;;;14.82;9.73;;;2.30;80.00;;;;;;5119016;27;20081;-77
2022/03/08 08:20:09;;;;;;;14.98;10.32;;;2.40;79.90;;;;;;5097986;27;20414;-77
2022/03/08 08:22:35;;;;;;;16.33;9.88;;;2.60;79.90;;;;;;5101456;27;20043;-77
2022/03/08 08:25:01;;;;;;;15.90;10.55;;;2.60;79.60;;;;;;5114000;27;20052;-77
2022/03/08 08:27:26;;;;;;;13.02;9.80;;;2.70;79.50;;;;;;5114862;27;20031;-77
2022/03/08 08:29:52;;;;;;;13.68;9.18;;;2.90;79.30;;;;;;5109004;27;20043;-78
2022/03/08 08:32:18;;;;;;;14.38;9.98;;;3.00;79.10;;;;;;5119425;27;20043;-78
2022/03/08 08:34:44;;;;;;;12.32;9.35;;;3.10;78.80;;;;;;5115455;27;20062;-77
2022/03/08 08:37:09;;;;;;;12.13;8.80;;;3.20;78.30;;;;;;5105883;27;20043;-77
2022/03/08 08:39:36;;;;;;;13.75;9.20;;;3.40;77.10;;;;;;5116046;27;20052;-77
2022/03/08 08:42:01;;;;;;;12.75;8.95;;;3.50;76.80;;;;;;5116559;27;20051;-76
2022/03/08 08:44:27;;;;;;;12.43;8.60;;;3.60;76.40;;;;;;5120830;27;20038;-77
2022/03/08 08:46:54;;;;;;;12.60;9.07;;;3.80;76.90;;;;;;5113314;27;20108;-78
2022/03/08 08:49:19;;;;;;;11.02;8.55;;;4.00;76.50;;;;;;5117426;27;20052;-77
2022/03/08 08:51:45;;;;;;;13.10;8.18;;;4.10;75.60;;;;;;5109111;28;20363;-77
2022/03/08 08:54:11;;;;;;;11.95;8.80;;;4.20;74.40;;;;;;5122666;27;20038;-78
2022/03/08 08:56:38;;;;;;;11.73;7.82;;;4.30;73.50;;;;;;5115658;27;20487;-78
2022/03/08 08:59:05;;;;;;;10.73;8.25;;;4.40;74.10;;;;;;5132689;27;20118;-77
2022/03/08 09:01:32;;;;;;;13.57;8.35;;;4.50;73.60;;;;;;5114846;27;20042;-77
2022/03/08 09:03:58;;;;;;;11.80;9.65;;;4.60;73.50;;;;;;5132734;27;20061;-78
2022/03/08 09:06:25;;;;;;;14.05;10.07;;;4.70;72.70;;;;;;5132791;28;20087;-78
2022/03/08 09:08:51;;;;;;;12.10;8.95;;;4.80;72.30;;;;;;5132776;28;20042;-77
2022/03/08 09:11:16;;;;;;;12.10;9.27;;;4.90;72.20;;;;;;5115423;28;20393;-77
2022/03/08 09:13:43;;;;;;;12.40;8.75;;;5.00;72.80;;;;;;5132439;28;20499;-77
2022/03/08 09:16:09;;;;;;;11.52;8.98;;;5.10;70.90;;;;;;5132482;28;20127;-78
2022/03/08 09:18:35;;;;;;;10.95;8.18;;;5.20;70.30;;;;;;5098788;28;20483;-77
2022/03/08 09:21:01;;;;;;;10.43;7.78;;;5.30;70.40;;;;;;5115596;28;20043;-78
2022/03/08 09:23:27;;;;;;;10.40;8.07;;;5.40;69.90;;;;;;5132487;28;20078;-77
2022/03/08 09:25:52;;;;;;;11.05;8.02;;;5.50;69.50;;;;;;5132728;28;20078;-77
2022/03/08 09:28:18;;;;;;;11.48;8.60;;;5.60;69.00;;;;;;5115301;28;20050;-78
2022/03/08 09:30:46;;;;;;;11.10;8.40;;;5.70;69.10;;;;;;5132382;28;20043;-77
2022/03/08 09:33:12;;;;;;;11.18;8.52;;;5.90;69.40;;;;;;5132392;28;20050;-77
2022/03/08 09:35:38;;;;;;;10.15;7.40;;;6.00;68.10;;;;;;5132511;28;20038;-77
2022/03/08 09:38:04;;;;;;;10.30;7.35;;;6.10;67.80;;;;;;5115755;27;20035;-78
2022/03/08 09:40:30;;;;;;;11.30;6.95;;;6.10;66.20;;;;;;5135725;27;20121;-77
2022/03/08 09:42:57;;;;;;;9.98;7.40;;;6.30;66.10;;;;;;5136802;27;20043;-77
2022/03/08 09:45:22;;;;;;;7.75;6.95;;;6.50;67.10;;;;;;5136573;27;20035;-77
2022/03/08 09:47:49;;;;;;;8.48;7.05;;;6.60;63.70;;;;;;5136290;27;20039;-78
2022/03/08 09:50:16;;;;;;;9.30;6.88;;;6.70;63.20;;;;;;5136357;27;20031;-78
2022/03/08 09:52:42;;;;;;;8.75;7.13;;;6.80;64.60;;;;;;5119095;27;20039;-78
2022/03/08 09:55:12;;;;;;;9.32;7.22;;;7.00;63.60;;;;;;5119245;27;20039;-78
2022/03/08 09:57:38;;;;;;;10.93;7.47;;;7.10;63.40;;;;;;5119121;27;20038;-78
2022/03/08 10:00:05;;;;;;;9.13;6.88;;;7.20;62.60;;;;;;5119205;27;20122;-78
2022/03/08 10:02:48;;;;;;;9.48;7.10;;;7.30;58.90;;;;;;5137138;27;20046;-78
2022/03/08 10:05:14;;;;;;;7.93;6.90;;;7.40;61.50;;;;;;5136224;27;20035;-78
2022/03/08 10:07:39;;;;;;;8.82;6.65;;;7.60;62.60;;;;;;5136132;27;20091;-78
2022/03/08 10:10:06;;;;;;;6.50;5.65;;;7.60;57.80;;;;;;5135907;27;20035;-78
2022/03/08 10:12:31;;;;;;;7.95;6.22;;;7.60;55.60;;;;;;5118582;27;20043;-77
2022/03/08 10:14:58;;;;;;;7.85;5.72;;;7.70;54.40;;;;;;5135778;27;20039;-77
2022/03/08 10:17:38;;;;;;;7.07;6.28;;;7.60;53.90;;;;;;5136028;27;20448;-77
2022/03/08 10:20:10;;;;;;;8.98;6.18;;;7.60;52.80;;;;;;5135734;27;20122;-77
2022/03/08 10:22:38;;;;;;;8.90;6.15;;;7.70;53.30;;;;;;5135868;27;20035;-78
2022/03/08 10:25:25;;;;;;;8.93;6.70;;;7.80;53.10;;;;;;5135841;27;20406;-77
2022/03/08 10:27:54;;;;;;;8.32;6.45;;;7.90;53.70;;;;;;5135494;27;20077;-78
2022/03/08 10:30:24;;;;;;;10.18;6.40;;;8.10;53.00;;;;;;5118300;27;20127;-77
2022/03/08 10:32:54;;;;;;;7.35;6.15;;;8.10;51.60;;;;;;5135682;27;20428;-77
2022/03/08 10:35:25;;;;;;;7.68;6.20;;;8.10;52.80;;;;;;5135649;27;20038;-77
2022/03/08 10:37:52;;;;;;;7.35;6.40;;;8.10;51.10;;;;;;5135360;27;20035;-78
2022/03/08 10:40:36;;;;;;;6.72;5.80;;;8.30;52.50;;;;;;5135309;27;20038;-77
2022/03/08 10:43:07;;;;;;;7.95;6.20;;;8.30;51.30;;;;;;5135302;27;20035;-78
2022/03/08 10:45:36;;;;;;;7.90;5.97;;;8.40;53.10;;;;;;5135507;27;20474;-77
2022/03/08 10:48:06;;;;;;;7.28;5.25;;;8.50;50.90;;;;;;5117906;27;20047;-78
2022/03/08 10:50:34;;;;;;;8.27;5.97;;;8.60;51.10;;;;;;5117704;27;20035;-77
2022/03/08 10:53:02;;;;;;;7.97;5.72;;;8.70;50.20;;;;;;5135359;27;20106;-78
2022/03/08 10:55:31;;;;;;;8.43;6.18;;;8.70;48.40;;;;;;5135025;27;20121;-77
2022/03/08 10:58:06;;;;;;;7.82;5.25;;;8.80;50.30;;;;;;5134949;27;20043;-78
2022/03/08 11:00:45;;;;;;;6.45;5.30;;;9.00;48.50;;;;;;5134832;27;20035;-77
2022/03/08 11:03:16;;;;;;;7.30;5.50;;;9.00;47.30;;;;;;5134838;27;20035;-77
2022/03/08 11:05:49;;;;;;;7.18;5.70;;;9.00;47.10;;;;;;5135082;27;20043;-78
2022/03/08 11:08:16;;;;;;;7.82;5.88;;;9.10;49.00;;;;;;5117624;27;20043;-77
2022/03/08 11:10:43;;;;;;;6.95;5.93;;;9.30;49.10;;;;;;5117690;27;20042;-77
2022/03/08 11:13:12;;;;;;;8.80;6.35;;;9.40;49.60;;;;;;5151896;27;20047;-78
2022/03/08 11:15:40;;;;;;;8.68;6.10;;;9.30;46.60;;;;;;5134635;27;20043;-77
2022/03/08 11:18:11;;;;;;;9.02;6.68;;;9.40;47.60;;;;;;5117354;27;20039;-77
2022/03/08 11:20:39;;;;;;;6.88;6.05;;;9.50;49.00;;;;;;5134747;27;20082;-77
2022/03/08 11:23:05;;;;;;;7.72;6.10;;;9.50;46.90;;;;;;5134474;27;20043;-78
2022/03/08 11:25:34;;;;;;;8.95;6.35;;;9.60;48.20;;;;;;5117288;27;20092;-78
2022/03/08 11:28:02;;;;;;;9.75;6.65;;;9.90;49.60;;;;;;5117111;27;20035;-78
2022/03/08 11:30:43;;;;;;;6.50;5.30;;;10.20;49.00;;;;;;5117211;27;20121;-78
2022/03/08 11:33:17;;;;;;;6.55;5.65;;;10.30;47.20;;;;;;5134304;27;20043;-78
2022/03/08 11:36:08;;;;;;;7.63;6.35;;;10.10;46.40;;;;;;5134283;27;20126;-77
2022/03/08 11:38:34;;;;;;;7.78;5.70;;;10.40;45.70;;;;;;5134418;27;20452;-78
2022/03/08 11:40:59;;;;;;;7.57;5.35;;;10.60;47.60;;;;;;5134035;27;20046;-77
2022/03/08 11:43:45;;;;;;;8.63;5.72;;;10.80;48.00;;;;;;5117072;27;20043;-78
2022/03/08 11:46:17;;;;;;;6.88;6.18;;;11.00;46.70;;;;;;5134462;27;20390;-78
2022/03/08 11:48:53;;;;;;;7.95;5.70;;;11.00;47.00;;;;;;5134029;27;20511;-78
2022/03/08 11:51:19;;;;;;;6.57;5.72;;;11.30;47.30;;;;;;5133662;27;20035;-78
2022/03/08 11:53:47;;;;;;;6.72;5.70;;;11.40;47.00;;;;;;5133672;27;20554;-78
2022/03/08 11:56:19;;;;;;;8.57;6.45;;;11.50;45.00;;;;;;5133638;27;20092;-78
2022/03/08 11:58:47;;;;;;;9.60;5.90;;;11.50;44.40;;;;;;5133724;27;20122;-78
2022/03/08 12:01:25;;;;;;;8.70;6.45;;;11.70;46.60;;;;;;5133707;27;20445;-78
2022/03/08 12:03:57;;;;;;;7.78;6.05;;;11.90;45.90;;;;;;5133398;27;20047;-78
2022/03/08 12:06:37;;;;;;;6.93;5.80;;;12.00;43.80;;;;;;5133608;27;20047;-77
2022/03/08 12:09:09;;;;;;;6.03;5.43;;;12.30;45.60;;;;;;5133472;27;20075;-78
2022/03/08 12:11:40;;;;;;;8.52;5.45;;;12.00;43.30;;;;;;5133246;27;20550;-77
2022/03/08 12:14:15;;;;;;;6.57;4.90;;;11.80;41.40;;;;;;5116631;27;20050;-77
2022/03/08 12:16:47;;;;;;;5.57;4.97;;;11.80;42.80;;;;;;5116645;27;20074;-78
2022/03/08 12:19:38;;;;;;;7.25;6.05;;;11.80;43.80;;;;;;5133422;27;20047;-78
2022/03/08 12:22:10;;;;;;;6.97;5.55;;;12.10;42.70;;;;;;5132840;27;20047;-78
2022/03/08 12:24:46;;;;;;;7.70;5.25;;;12.10;42.50;;;;;;5133251;27;20043;-77
2022/03/08 12:27:12;;;;;;;6.13;5.45;;;12.10;42.20;;;;;;5116373;27;20050;-78
2022/03/08 12:29:56;;;;;;;7.40;5.13;;;11.90;40.60;;;;;;5133166;27;20368;-78
2022/03/08 12:32:23;;;;;;;7.70;5.65;;;11.80;40.50;;;;;;5115891;27;20039;-77
2022/03/08 12:34:53;;;;;;;5.88;4.32;;;11.90;40.40;;;;;;5133076;27;20521;-78
2022/03/08 12:37:20;;;;;;;6.70;5.18;;;12.00;41.20;;;;;;5116242;27;20027;-77
2022/03/08 12:40:01;;;;;;;7.78;5.63;;;12.10;41.20;;;;;;5133036;27;20095;-78
2022/03/08 12:42:40;;;;;;;7.57;5.15;;;12.10;41.00;;;;;;5132876;27;20039;-78
2022/03/08 12:45:11;;;;;;;6.35;5.28;;;12.10;38.60;;;;;;5133008;27;20084;-78